Fort Peck, Montana
Current Conditions -  °F | °C
As of 4:53 PM on Tuesday 25 Nov 2014 (Local Time) from KGGW Reporting Station
Overcast Overcast  
Wind Chill: 14°   Ceiling: 1400
Heat Index: 26°   Visibility: 10mi
Dew Point: 21°   Wind: 14mph
Humidity: 81%   Direction: 350°N
Pressure: 30.04"   Gusts: NA
Location:  48.01°N, 106.45°W
Report Text: KGGW 252353Z AUTO 35012KT 10SM OVC014 M03/M06 A3004 RMK AO2 PRESRR SLP204 T10331061 10033 21033 53062
Loading
Personal Weather Stations






























Interactive Weather Map New forecast layout! Learn more

10-Day Weather Forecast

Advertisements
Track Severe Weather on mobile